Terminal Aerodrome Forecast
Issued by NWS

Home | Current Version | Previous Version | Text Only | Print | Product List | Glossary On
Versions: 1 2 3 4 5 6 7 8 9 10 11 12 13 14
000
FTAK31 PAJN 211859 CCA
TAFAPG
TAF COR
PAPG 211859Z 2118/2218 VRB04KT 3SM -RA BR BKN006 OVC015
      TEMPO 2119/2121 4SM RA BR SCT007 OVC015
     FM212100 11003KT 4SM RA BR BKN007 OVC015
     FM220700 09002KT 3SM RA BR BKN005 OVC015
     FM221600 00000KT 2SM -RA BR OVC015
      AMD LTD TO CLD VIS AND WIND 2206/2215=

USA.gov is the U.S. government's official web portal to all federal, state and local government web resources and services.